Time;durP1;ratioP1;P1;durP2;ratioP2;P2;SDS_P1;SDS_P2;PMS_P1;PMS_P2;Temp;Humidity;BMP_temperature;BMP_pressure;BME280_temperature;BME280_humidity;BME280_pressure;Samples;Min_cycle;Max_cycle;Signal;HPM_P1;HPM_P2
2022/02/15 00:00:31;;;;;;;30.88;8.23;;;6.60;99.90;;;;;;5053820;28;20032;-71
2022/02/15 00:02:57;;;;;;;22.88;7.50;;;6.60;99.90;;;;;;5054041;28;20151;-71
2022/02/15 00:05:22;;;;;;;23.27;8.23;;;6.60;99.90;;;;;;5053729;28;20079;-71
2022/02/15 00:07:48;;;;;;;22.67;7.82;;;6.60;99.90;;;;;;5053752;28;20025;-71
2022/02/15 00:10:14;;;;;;;33.97;7.90;;;6.60;99.90;;;;;;5053584;28;20025;-71
2022/02/15 00:12:40;;;;;;;19.23;7.30;;;6.50;99.90;;;;;;5053610;28;20029;-71
2022/02/15 00:15:07;;;;;;;40.97;5.20;;;6.50;99.90;;;;;;5053671;28;20071;-71
2022/02/15 00:17:34;;;;;;;24.52;4.82;;;6.50;99.90;;;;;;5053586;28;20025;-71
2022/02/15 00:20:00;;;;;;;27.02;4.45;;;6.40;99.90;;;;;;5053511;28;20382;-71
2022/02/15 00:22:26;;;;;;;20.58;2.72;;;6.40;99.90;;;;;;5053455;28;20029;-71
2022/02/15 00:24:51;;;;;;;27.38;4.10;;;6.40;99.90;;;;;;5053428;28;20021;-71
2022/02/15 00:27:17;;;;;;;33.17;4.90;;;6.30;99.90;;;;;;5053521;28;20061;-71
2022/02/15 00:29:42;;;;;;;29.65;4.13;;;6.20;99.90;;;;;;5053475;28;20029;-71
2022/02/15 00:32:08;;;;;;;30.35;4.57;;;6.20;99.90;;;;;;5053449;28;20048;-71
2022/02/15 00:34:34;;;;;;;25.65;3.35;;;6.10;99.90;;;;;;5054005;28;20036;-71
2022/02/15 00:37:00;;;;;;;30.02;3.85;;;6.10;99.90;;;;;;5053471;28;20044;-71
2022/02/15 00:39:26;;;;;;;23.80;3.22;;;6.00;99.90;;;;;;5053409;28;20458;-71
2022/02/15 00:41:52;;;;;;;25.15;4.00;;;5.90;99.90;;;;;;5053148;28;20029;-71
2022/02/15 00:44:18;;;;;;;37.70;3.83;;;5.90;99.90;;;;;;5053324;28;20588;-71
2022/02/15 00:46:43;;;;;;;30.92;5.28;;;5.90;99.90;;;;;;5053270;28;20024;-71
2022/02/15 00:49:09;;;;;;;24.48;3.92;;;5.90;99.90;;;;;;5053235;28;20100;-71
2022/02/15 00:51:34;;;;;;;39.53;5.78;;;5.90;99.90;;;;;;5053029;28;20135;-71
2022/02/15 00:54:00;;;;;;;47.92;4.88;;;5.90;99.90;;;;;;5053272;28;20109;-71
2022/02/15 00:56:25;;;;;;;51.97;5.45;;;5.80;99.90;;;;;;5053219;28;20078;-71
2022/02/15 00:58:51;;;;;;;51.65;6.88;;;5.80;99.90;;;;;;5053592;28;20037;-71
2022/02/15 01:01:17;;;;;;;36.10;6.93;;;5.70;99.90;;;;;;5053035;28;20052;-71
2022/02/15 01:03:42;;;;;;;44.40;5.15;;;5.70;99.90;;;;;;5053273;28;20075;-71
2022/02/15 01:06:08;;;;;;;63.80;7.25;;;5.70;99.90;;;;;;5053198;28;20103;-71
2022/02/15 01:08:34;;;;;;;40.50;6.05;;;5.70;99.90;;;;;;5053741;28;20021;-71
2022/02/15 01:11:00;;;;;;;45.30;5.35;;;5.70;99.90;;;;;;5053029;28;20021;-71
2022/02/15 01:13:26;;;;;;;43.47;5.45;;;5.60;99.90;;;;;;5053157;28;20091;-71
2022/02/15 01:15:52;;;;;;;54.10;5.75;;;5.70;99.90;;;;;;5053157;28;20039;-71
2022/02/15 01:18:18;;;;;;;37.22;5.68;;;5.60;99.90;;;;;;5053080;28;20032;-71
2022/02/15 01:20:44;;;;;;;63.30;6.47;;;5.60;99.90;;;;;;5053148;28;20071;-71
2022/02/15 01:23:09;;;;;;;47.50;7.28;;;5.60;99.90;;;;;;5056210;28;20432;-71
2022/02/15 01:25:35;;;;;;;59.92;7.45;;;5.60;99.90;;;;;;5056809;28;20059;-71
2022/02/15 01:28:01;;;;;;;54.42;5.32;;;5.60;99.90;;;;;;5057262;28;20024;-71
2022/02/15 01:30:26;;;;;;;42.78;5.78;;;5.60;99.90;;;;;;5056832;28;20032;-71
2022/02/15 01:32:52;;;;;;;46.80;5.82;;;5.60;99.90;;;;;;5056730;28;20021;-71
2022/02/15 01:35:17;;;;;;;48.33;6.25;;;5.60;99.90;;;;;;5056755;28;20151;-71
2022/02/15 01:37:43;;;;;;;72.65;6.93;;;5.60;99.90;;;;;;5056678;28;20028;-71
2022/02/15 01:40:10;;;;;;;58.45;8.68;;;5.60;99.90;;;;;;5056587;28;20052;-71
2022/02/15 01:42:36;;;;;;;66.68;5.80;;;5.60;99.90;;;;;;5056359;28;20032;-71
2022/02/15 01:45:02;;;;;;;56.50;8.93;;;5.60;99.90;;;;;;5056435;28;20100;-71
2022/02/15 01:47:30;;;;;;;57.90;6.28;;;5.60;99.90;;;;;;5056604;28;20462;-71
2022/02/15 01:49:57;;;;;;;58.80;6.82;;;5.60;99.90;;;;;;5056347;28;20116;-71
2022/02/15 01:52:23;;;;;;;53.25;5.35;;;5.60;99.90;;;;;;5056711;28;20079;-71
2022/02/15 01:54:51;;;;;;;39.50;5.57;;;5.60;99.90;;;;;;5056340;28;20025;-71
2022/02/15 01:57:17;;;;;;;47.65;6.47;;;5.70;99.90;;;;;;5056244;28;20454;-71
2022/02/15 01:59:46;;;;;;;50.03;4.85;;;5.70;99.90;;;;;;5056651;28;20112;-72
2022/02/15 02:02:14;;;;;;;33.78;4.70;;;5.70;99.90;;;;;;5056301;28;20077;-72
2022/02/15 02:07:27;;;;;;;28.45;4.13;;;5.60;99.90;;;;;;5056448;28;20036;-72
2022/02/15 02:09:55;;;;;;;22.30;3.20;;;5.70;99.90;;;;;;5056260;28;20076;-72
2022/02/15 02:12:22;;;;;;;25.80;3.25;;;5.70;99.90;;;;;;5055956;28;20025;-72
2022/02/15 02:14:56;;;;;;;18.25;3.55;;;5.70;99.90;;;;;;5056053;28;20559;-72
2022/02/15 02:17:22;;;;;;;30.88;2.85;;;5.70;99.90;;;;;;5056221;28;20032;-72
2022/02/15 02:19:47;;;;;;;18.02;3.17;;;5.70;99.90;;;;;;5055772;28;20018;-72
2022/02/15 02:22:13;;;;;;;22.80;3.08;;;5.70;99.90;;;;;;5055943;28;20025;-72
2022/02/15 02:24:38;;;;;;;34.47;3.53;;;5.70;99.90;;;;;;5055889;28;20029;-72
2022/02/15 02:27:04;;;;;;;23.83;3.10;;;5.70;99.90;;;;;;5055855;28;20029;-72
2022/02/15 02:29:29;;;;;;;24.60;2.78;;;5.70;99.90;;;;;;5055815;28;20032;-72
2022/02/15 02:31:55;;;;;;;39.45;4.65;;;5.70;99.90;;;;;;5055628;28;20102;-72
2022/02/15 02:34:21;;;;;;;40.50;4.80;;;5.70;99.90;;;;;;5055490;28;20031;-72
2022/02/15 02:36:49;;;;;;;41.50;3.15;;;5.60;99.90;;;;;;5055649;28;20101;-72
2022/02/15 02:39:14;;;;;;;44.10;3.63;;;5.60;99.90;;;;;;5055520;28;20078;-72
2022/02/15 02:41:40;;;;;;;44.28;3.90;;;5.60;99.90;;;;;;5055708;28;20427;-72
2022/02/15 02:44:05;;;;;;;50.42;5.72;;;5.60;99.90;;;;;;5055391;28;20021;-72
2022/02/15 02:46:31;;;;;;;34.17;4.28;;;5.60;99.90;;;;;;5055376;28;20025;-72
2022/02/15 02:48:56;;;;;;;28.60;3.88;;;5.50;99.90;;;;;;5055561;28;20025;-72
2022/02/15 02:51:22;;;;;;;31.98;3.95;;;5.50;99.90;;;;;;5055111;28;20033;-72
2022/02/15 02:53:47;;;;;;;32.15;3.78;;;5.50;99.90;;;;;;5055879;28;20036;-72
2022/02/15 02:56:14;;;;;;;48.80;4.63;;;5.50;99.90;;;;;;5055615;28;20033;-72
2022/02/15 02:58:39;;;;;;;45.80;3.50;;;5.50;99.90;;;;;;5055181;28;20380;-72
2022/02/15 03:01:05;;;;;;;40.20;3.90;;;5.50;99.90;;;;;;5055427;28;20059;-72
2022/02/15 03:03:30;;;;;;;46.58;5.50;;;5.50;99.90;;;;;;5055296;28;20048;-72
2022/02/15 03:05:57;;;;;;;45.08;3.72;;;5.50;99.90;;;;;;5055600;28;20114;-72
2022/02/15 03:08:23;;;;;;;29.60;3.95;;;5.60;99.90;;;;;;5055218;28;20021;-72
2022/02/15 03:10:48;;;;;;;44.60;3.38;;;5.50;99.90;;;;;;5037201;28;20564;-72
2022/02/15 03:13:14;;;;;;;46.28;4.18;;;5.50;99.90;;;;;;5055118;28;20029;-72
2022/02/15 03:15:40;;;;;;;39.72;4.43;;;5.60;99.90;;;;;;5054895;28;20020;-72
2022/02/15 03:18:06;;;;;;;60.17;4.70;;;5.50;99.90;;;;;;5055085;28;20033;-72
2022/02/15 03:20:31;;;;;;;29.90;3.60;;;5.50;99.90;;;;;;5055004;28;20029;-72
2022/02/15 03:22:57;;;;;;;50.22;4.15;;;5.50;99.90;;;;;;5054666;28;20017;-72
2022/02/15 03:25:23;;;;;;;26.60;3.40;;;5.50;99.90;;;;;;5054999;28;20025;-72
2022/02/15 03:27:48;;;;;;;36.85;4.80;;;5.50;99.90;;;;;;5054663;28;20025;-72
2022/02/15 03:30:14;;;;;;;30.52;3.70;;;5.50;99.90;;;;;;5054649;28;20025;-72
2022/02/15 03:32:42;;;;;;;32.30;3.95;;;5.40;99.90;;;;;;5036835;28;20033;-72
2022/02/15 03:35:08;;;;;;;38.78;4.07;;;5.50;99.90;;;;;;5054864;28;20036;-72
2022/02/15 03:37:33;;;;;;;37.15;4.15;;;5.50;99.90;;;;;;5054763;28;20029;-72
2022/02/15 03:39:59;;;;;;;43.17;4.90;;;5.50;99.90;;;;;;5054689;28;20036;-72
2022/02/15 03:45:09;;;;;;;58.85;5.30;;;5.50;99.90;;;;;;5054269;28;20036;-73
2022/02/15 03:47:34;;;;;;;56.88;5.65;;;5.50;99.90;;;;;;5054561;28;20024;-73
2022/02/15 03:50:00;;;;;;;40.97;5.03;;;5.50;99.90;;;;;;5036895;28;20021;-73
2022/02/15 03:52:25;;;;;;;36.50;4.07;;;5.50;99.90;;;;;;5054237;28;20033;-72
2022/02/15 03:54:51;;;;;;;47.97;4.85;;;5.50;99.90;;;;;;5036467;28;20028;-72
2022/02/15 03:57:16;;;;;;;42.35;5.43;;;5.50;99.90;;;;;;5054264;28;20025;-72
2022/02/15 03:59:42;;;;;;;59.50;6.38;;;5.50;99.90;;;;;;5054700;28;20047;-72
2022/02/15 04:02:07;;;;;;;62.45;7.05;;;5.50;99.90;;;;;;5053856;28;20104;-72
2022/02/15 04:04:33;;;;;;;66.15;6.47;;;5.40;99.90;;;;;;5054735;28;20454;-72
2022/02/15 04:06:59;;;;;;;54.78;5.00;;;5.30;99.90;;;;;;5054036;28;20074;-72
2022/02/15 04:09:24;;;;;;;56.72;5.32;;;5.30;99.90;;;;;;5053963;28;20466;-72
2022/02/15 04:11:50;;;;;;;49.35;5.70;;;5.20;99.90;;;;;;5054184;28;20478;-72
2022/02/15 04:14:15;;;;;;;43.47;4.97;;;5.20;99.90;;;;;;5053866;28;20084;-72
2022/02/15 04:16:41;;;;;;;65.25;6.55;;;5.20;99.90;;;;;;5054031;28;20389;-72
2022/02/15 04:19:06;;;;;;;46.25;5.63;;;5.20;99.90;;;;;;5054007;28;20033;-72
2022/02/15 04:21:32;;;;;;;42.15;4.38;;;5.20;99.90;;;;;;5054015;28;20043;-72
2022/02/15 04:23:58;;;;;;;40.03;4.13;;;5.20;99.90;;;;;;5054043;28;20021;-72
2022/02/15 04:26:23;;;;;;;51.47;5.82;;;5.20;99.90;;;;;;5053879;28;20021;-72
2022/02/15 04:28:49;;;;;;;39.05;4.30;;;5.20;99.90;;;;;;5054100;28;20474;-72
2022/02/15 04:31:14;;;;;;;32.28;4.57;;;5.20;99.90;;;;;;5054104;28;20075;-72
2022/02/15 04:33:40;;;;;;;51.63;6.28;;;5.10;99.90;;;;;;5053856;28;20412;-72
2022/02/15 04:36:06;;;;;;;68.03;4.60;;;5.10;99.90;;;;;;5053847;28;20025;-72
2022/02/15 04:38:32;;;;;;;32.65;4.03;;;5.10;99.90;;;;;;5054086;28;20078;-72
2022/02/15 04:40:57;;;;;;;33.88;5.57;;;5.10;99.90;;;;;;5037198;28;20064;-72
2022/02/15 04:43:23;;;;;;;45.17;4.57;;;5.10;99.90;;;;;;5036292;28;20112;-72
2022/02/15 04:45:48;;;;;;;45.17;4.75;;;5.10;99.90;;;;;;5053890;28;20024;-72
2022/02/15 04:48:14;;;;;;;37.55;5.63;;;5.10;99.90;;;;;;5054106;28;20032;-72
2022/02/15 04:50:39;;;;;;;37.38;4.43;;;5.20;99.90;;;;;;5053692;28;20044;-72
2022/02/15 04:53:05;;;;;;;46.58;5.35;;;5.20;99.90;;;;;;5054466;28;20033;-72
2022/02/15 04:55:30;;;;;;;42.00;5.30;;;5.10;99.90;;;;;;5054698;28;20374;-72
2022/02/15 04:57:56;;;;;;;38.42;3.70;;;5.10;99.90;;;;;;5058142;28;20404;-72
2022/02/15 05:00:22;;;;;;;35.38;4.22;;;5.00;99.90;;;;;;5057978;28;20021;-72
2022/02/15 05:02:47;;;;;;;38.80;5.50;;;5.00;99.90;;;;;;5058064;28;20521;-72
2022/02/15 05:05:13;;;;;;;60.55;5.90;;;4.90;99.90;;;;;;5057943;28;20025;-72
2022/02/15 05:07:38;;;;;;;36.78;5.15;;;4.90;99.90;;;;;;5057874;28;20453;-72
2022/02/15 05:10:05;;;;;;;45.92;5.13;;;4.80;99.90;;;;;;5057782;28;20029;-72
2022/02/15 05:12:32;;;;;;;53.05;5.07;;;4.90;99.90;;;;;;5057836;28;20017;-72
2022/02/15 05:14:58;;;;;;;31.23;3.45;;;4.80;99.90;;;;;;5057838;28;20462;-72
2022/02/15 05:17:26;;;;;;;41.05;5.28;;;4.90;99.90;;;;;;5057531;28;20051;-72
2022/02/15 05:19:51;;;;;;;61.33;4.85;;;4.90;99.90;;;;;;5039424;28;20049;-72
2022/02/15 05:22:17;;;;;;;38.47;5.60;;;4.90;99.90;;;;;;5057332;28;20068;-72
2022/02/15 05:24:42;;;;;;;35.65;4.93;;;4.90;99.90;;;;;;5057574;28;20033;-72
2022/02/15 05:27:08;;;;;;;49.67;5.88;;;4.80;99.90;;;;;;5057277;28;20029;-72
2022/02/15 05:29:34;;;;;;;47.22;6.60;;;4.80;99.90;;;;;;5057148;28;20025;-72
2022/02/15 05:31:59;;;;;;;30.63;3.72;;;4.80;99.90;;;;;;5057175;28;20143;-72
2022/02/15 05:34:25;;;;;;;43.67;4.85;;;4.70;99.90;;;;;;5057221;28;20047;-72
2022/02/15 05:36:50;;;;;;;46.67;4.70;;;4.70;99.90;;;;;;5057056;28;20076;-71
2022/02/15 05:39:17;;;;;;;38.42;4.93;;;4.70;99.90;;;;;;5057013;28;20021;-71
2022/02/15 05:41:43;;;;;;;52.33;4.28;;;4.60;99.90;;;;;;5056858;28;20104;-71
2022/02/15 05:44:08;;;;;;;32.13;4.38;;;4.70;99.90;;;;;;5056876;28;20481;-71
2022/02/15 05:46:34;;;;;;;38.13;6.45;;;4.80;99.90;;;;;;5056750;28;20029;-71
2022/02/15 05:48:59;;;;;;;43.83;3.97;;;4.80;99.90;;;;;;5056794;28;20017;-71
2022/02/15 05:51:25;;;;;;;63.55;5.32;;;4.80;99.90;;;;;;5056544;28;20070;-71
2022/02/15 05:53:52;;;;;;;44.88;5.20;;;4.80;99.90;;;;;;5056517;28;20497;-72
2022/02/15 05:56:18;;;;;;;44.13;4.45;;;4.80;99.90;;;;;;5056549;28;20493;-72
2022/02/15 05:58:44;;;;;;;34.13;5.60;;;4.80;99.90;;;;;;5056511;28;20049;-72
2022/02/15 06:01:09;;;;;;;40.38;4.68;;;4.80;99.90;;;;;;5056231;28;20067;-72
2022/02/15 06:06:19;;;;;;;38.60;6.90;;;4.80;99.90;;;;;;5056550;28;20036;-71
2022/02/15 06:08:45;;;;;;;36.28;4.38;;;4.70;99.90;;;;;;5055864;28;20025;-71
2022/02/15 06:11:11;;;;;;;41.65;6.07;;;4.70;99.90;;;;;;5056094;28;20469;-71
2022/02/15 06:13:36;;;;;;;40.13;6.22;;;4.80;99.90;;;;;;5056273;28;20230;-71
2022/02/15 06:16:02;;;;;;;45.08;5.55;;;4.70;99.90;;;;;;5056093;28;20025;-71
2022/02/15 06:18:27;;;;;;;31.33;3.72;;;4.70;99.90;;;;;;5056316;28;20033;-71
2022/02/15 06:20:53;;;;;;;43.17;5.00;;;4.70;99.90;;;;;;5038035;28;20025;-71
2022/02/15 06:23:19;;;;;;;45.28;5.53;;;4.70;99.90;;;;;;5056090;28;20021;-71
2022/02/15 06:25:44;;;;;;;40.72;4.40;;;4.60;99.90;;;;;;5056517;28;20373;-71
2022/02/15 06:28:10;;;;;;;34.05;3.78;;;4.60;99.90;;;;;;5055868;28;20032;-71
2022/02/15 06:30:35;;;;;;;28.92;3.90;;;4.60;99.90;;;;;;5055534;28;20060;-71
2022/02/15 06:33:01;;;;;;;38.10;4.60;;;4.50;99.90;;;;;;5056029;28;20035;-71
2022/02/15 06:35:26;;;;;;;37.88;3.70;;;4.40;99.90;;;;;;5055794;28;20108;-71
2022/02/15 06:37:52;;;;;;;37.17;4.40;;;4.40;99.90;;;;;;5055705;28;20392;-71
2022/02/15 06:40:19;;;;;;;23.92;3.28;;;4.40;99.90;;;;;;5055730;28;20535;-71
2022/02/15 06:42:46;;;;;;;29.17;3.33;;;4.40;99.90;;;;;;5055502;28;20025;-71
2022/02/15 06:45:12;;;;;;;29.92;4.70;;;4.30;99.90;;;;;;5055645;28;20045;-71
2022/02/15 06:47:38;;;;;;;42.22;3.85;;;4.40;99.90;;;;;;5055408;28;20017;-71
2022/02/15 06:50:04;;;;;;;34.75;3.78;;;4.40;99.90;;;;;;5055991;28;20029;-71
2022/02/15 06:52:30;;;;;;;49.90;4.13;;;4.40;99.90;;;;;;5055186;28;20397;-71
2022/02/15 06:54:56;;;;;;;32.50;3.40;;;4.50;99.90;;;;;;5055261;28;20467;-71
2022/02/15 06:57:22;;;;;;;33.40;3.38;;;4.60;99.90;;;;;;5037595;28;20021;-71
2022/02/15 06:59:49;;;;;;;26.77;3.33;;;4.60;99.90;;;;;;5055073;28;20048;-71
2022/02/15 07:02:18;;;;;;;34.30;4.43;;;4.60;99.90;;;;;;5054930;28;20104;-71
2022/02/15 07:04:47;;;;;;;50.03;6.13;;;4.60;99.90;;;;;;5055332;28;20363;-71
2022/02/15 07:07:14;;;;;;;21.67;3.15;;;4.60;99.90;;;;;;5055067;28;20071;-72
2022/02/15 07:09:40;;;;;;;32.00;5.00;;;4.60;99.90;;;;;;5055617;28;20025;-72
2022/02/15 07:12:07;;;;;;;32.70;3.42;;;4.60;99.90;;;;;;5055060;28;20021;-72
2022/02/15 07:14:33;;;;;;;31.83;3.22;;;4.60;99.90;;;;;;5055399;28;20096;-72
2022/02/15 07:16:59;;;;;;;23.98;2.97;;;4.70;99.90;;;;;;5055760;28;20021;-72
2022/02/15 07:19:29;;;;;;;26.70;4.78;;;4.70;99.90;;;;;;5054074;28;20021;-72
2022/02/15 07:21:56;;;;;;;31.85;3.17;;;4.60;99.90;;;;;;5055176;28;20022;-71
2022/02/15 07:24:22;;;;;;;35.55;4.22;;;4.70;99.90;;;;;;5055037;28;20493;-72
2022/02/15 07:26:48;;;;;;;31.77;3.63;;;4.80;99.90;;;;;;5054965;28;20025;-72
2022/02/15 07:29:15;;;;;;;34.50;4.50;;;4.80;99.90;;;;;;5054747;28;20017;-71
2022/02/15 07:31:41;;;;;;;39.42;4.82;;;4.80;99.90;;;;;;5054853;28;20453;-71
2022/02/15 07:34:06;;;;;;;37.00;5.40;;;4.80;99.90;;;;;;5055165;28;20029;-71
2022/02/15 07:36:32;;;;;;;37.65;4.57;;;4.80;99.90;;;;;;5054536;28;20035;-71
2022/02/15 07:38:57;;;;;;;40.28;4.47;;;4.80;99.90;;;;;;5054607;28;20067;-71
2022/02/15 07:41:23;;;;;;;32.03;4.35;;;4.80;99.90;;;;;;5054257;28;20071;-71
2022/02/15 07:43:48;;;;;;;39.35;4.32;;;4.80;99.90;;;;;;5054353;28;20070;-71
2022/02/15 07:46:14;;;;;;;31.42;4.90;;;4.90;99.90;;;;;;5054590;28;20048;-71
2022/02/15 07:48:40;;;;;;;44.55;5.43;;;4.90;99.90;;;;;;5054217;28;20500;-71
2022/02/15 07:51:05;;;;;;;47.08;4.97;;;5.00;99.90;;;;;;5054059;28;20071;-71
2022/02/15 07:53:31;;;;;;;33.35;4.65;;;5.00;99.90;;;;;;5036289;28;20028;-71
2022/02/15 07:55:57;;;;;;;41.17;4.95;;;5.00;99.90;;;;;;5054099;28;20025;-71
2022/02/15 07:58:22;;;;;;;31.15;3.80;;;5.10;99.90;;;;;;5054391;28;20029;-71
2022/02/15 08:00:48;;;;;;;44.53;5.50;;;5.20;99.90;;;;;;5053806;28;20532;-71
2022/02/15 08:03:13;;;;;;;36.80;4.57;;;5.20;99.90;;;;;;5036101;28;20029;-71
2022/02/15 08:05:41;;;;;;;32.00;5.85;;;5.30;99.90;;;;;;5053960;28;20048;-71
2022/02/15 08:08:07;;;;;;;30.63;4.20;;;5.20;99.90;;;;;;5053909;28;20021;-71
2022/02/15 08:10:33;;;;;;;33.90;4.28;;;5.30;99.90;;;;;;5054222;28;20028;-71
2022/02/15 08:12:59;;;;;;;33.03;4.60;;;5.30;99.90;;;;;;5053730;28;20021;-71
2022/02/15 08:15:28;;;;;;;40.38;4.47;;;5.30;99.90;;;;;;5053820;28;20036;-71
2022/02/15 08:17:55;;;;;;;34.38;4.70;;;5.40;99.90;;;;;;5054061;28;20025;-71
2022/02/15 08:20:21;;;;;;;25.35;4.10;;;5.40;99.90;;;;;;5053716;28;20025;-71
2022/02/15 08:22:46;;;;;;;25.77;4.05;;;5.50;99.90;;;;;;5053746;28;20067;-71
2022/02/15 08:25:12;;;;;;;31.70;3.88;;;5.50;99.90;;;;;;5053616;28;20017;-71
2022/02/15 08:27:38;;;;;;;21.75;3.92;;;5.60;99.90;;;;;;5053944;28;20029;-71
2022/02/15 08:30:05;;;;;;;32.75;3.85;;;5.70;99.90;;;;;;5053361;28;20083;-71
2022/02/15 08:32:31;;;;;;;43.25;5.25;;;5.70;99.90;;;;;;5053333;28;20025;-71
2022/02/15 08:34:56;;;;;;;24.50;3.78;;;5.70;99.90;;;;;;5053510;28;20025;-71
2022/02/15 08:37:22;;;;;;;39.20;4.35;;;5.60;99.90;;;;;;5035693;28;20111;-71
2022/02/15 08:39:48;;;;;;;22.77;3.17;;;5.50;99.90;;;;;;5053674;28;20029;-71
2022/02/15 08:42:13;;;;;;;20.08;3.67;;;5.50;99.90;;;;;;5053438;28;20052;-71
2022/02/15 08:44:39;;;;;;;30.45;3.88;;;5.50;99.90;;;;;;5053477;28;20021;-71
2022/02/15 08:47:06;;;;;;;18.75;2.53;;;5.50;99.90;;;;;;5053635;28;20031;-71
2022/02/15 08:49:32;;;;;;;22.58;3.63;;;5.60;99.90;;;;;;5053362;28;20044;-71
2022/02/15 08:51:58;;;;;;;27.92;3.30;;;5.70;99.90;;;;;;5053216;28;20047;-71
2022/02/15 08:54:24;;;;;;;40.08;4.30;;;5.90;99.90;;;;;;5054368;28;20041;-71
2022/02/15 08:56:49;;;;;;;30.35;4.43;;;6.00;99.90;;;;;;5053278;28;20079;-72
2022/02/15 08:59:15;;;;;;;31.98;4.25;;;6.00;99.90;;;;;;5053156;28;20494;-72
2022/02/15 09:01:41;;;;;;;30.00;3.90;;;6.10;99.90;;;;;;5053338;28;20033;-72
2022/02/15 09:04:06;;;;;;;19.92;3.22;;;6.10;99.90;;;;;;5053480;28;20025;-72
2022/02/15 09:06:34;;;;;;;22.13;3.85;;;6.10;99.90;;;;;;5053230;28;20029;-72
2022/02/15 09:09:00;;;;;;;19.25;3.13;;;6.10;99.90;;;;;;5053337;28;20029;-72
2022/02/15 09:11:25;;;;;;;43.33;4.00;;;6.20;99.90;;;;;;5053115;28;20036;-71
2022/02/15 09:13:51;;;;;;;43.17;4.20;;;6.10;99.90;;;;;;5053113;28;20113;-71
2022/02/15 09:16:17;;;;;;;20.20;2.80;;;6.20;99.90;;;;;;5053593;28;20021;-71
2022/02/15 09:18:42;;;;;;;35.30;3.20;;;6.20;99.90;;;;;;5053055;28;20049;-71
2022/02/15 09:21:08;;;;;;;36.28;4.18;;;6.20;99.90;;;;;;5052915;28;20029;-71
2022/02/15 09:23:33;;;;;;;27.13;3.88;;;6.20;99.90;;;;;;5052982;28;20021;-71
2022/02/15 09:25:59;;;;;;;25.73;4.05;;;6.20;99.90;;;;;;5053262;28;20375;-71
2022/02/15 09:28:25;;;;;;;32.42;4.75;;;6.30;99.90;;;;;;5052968;28;20095;-71
2022/02/15 09:30:54;;;;;;;29.08;4.25;;;6.40;99.90;;;;;;5053066;28;20040;-71
2022/02/15 09:33:26;;;;;;;44.80;4.55;;;6.40;99.90;;;;;;5052885;28;20025;-71
2022/02/15 09:35:51;;;;;;;41.97;4.05;;;6.40;99.90;;;;;;5053348;28;20461;-71
2022/02/15 09:38:17;;;;;;;23.60;3.92;;;6.40;99.90;;;;;;5052897;28;20079;-71
2022/02/15 09:40:43;;;;;;;31.33;4.30;;;6.60;99.90;;;;;;5052626;28;20057;-71
2022/02/15 09:43:11;;;;;;;20.95;2.80;;;6.90;99.90;;;;;;5054907;28;20354;-71
2022/02/15 09:45:38;;;;;;;14.48;2.33;;;7.00;99.90;;;;;;5056872;28;20409;-71
2022/02/15 09:48:07;;;;;;;28.50;3.40;;;6.80;99.90;;;;;;5056321;28;20025;-71
2022/02/15 09:50:33;;;;;;;31.67;3.13;;;6.70;99.90;;;;;;5056371;28;20029;-71
2022/02/15 09:53:00;;;;;;;18.65;3.05;;;6.80;99.90;;;;;;5056275;28;20121;-71
2022/02/15 09:55:26;;;;;;;30.25;3.50;;;6.80;99.90;;;;;;5056214;28;20055;-71
2022/02/15 09:57:52;;;;;;;34.50;3.88;;;7.00;99.90;;;;;;5056292;28;20029;-71
2022/02/15 10:00:21;;;;;;;26.25;3.35;;;7.20;99.90;;;;;;5055982;28;20116;-71
2022/02/15 10:02:48;;;;;;;26.48;3.20;;;7.30;99.90;;;;;;5055990;28;20017;-71
2022/02/15 10:05:19;;;;;;;25.27;2.63;;;7.20;99.90;;;;;;5056146;28;20029;-71
2022/02/15 10:07:47;;;;;;;25.50;3.38;;;7.10;99.90;;;;;;5055952;28;20017;-71
2022/02/15 10:10:13;;;;;;;18.73;2.58;;;7.10;99.90;;;;;;5055935;28;20017;-71
2022/02/15 10:12:39;;;;;;;16.88;3.08;;;7.10;99.90;;;;;;5056046;28;20025;-71
2022/02/15 10:15:10;;;;;;;18.00;2.35;;;7.30;99.90;;;;;;5055841;28;20470;-71
2022/02/15 10:17:37;;;;;;;16.60;2.65;;;7.30;99.90;;;;;;5056022;28;20025;-71
2022/02/15 10:20:04;;;;;;;17.92;3.47;;;7.20;99.90;;;;;;5055607;28;20500;-71
2022/02/15 10:22:35;;;;;;;19.98;2.85;;;7.20;99.90;;;;;;5055546;28;20029;-71
2022/02/15 10:25:02;;;;;;;16.67;3.00;;;7.20;99.90;;;;;;5055978;28;20374;-71
2022/02/15 10:27:30;;;;;;;16.70;2.88;;;7.30;99.90;;;;;;5055815;28;20028;-71
2022/02/15 10:29:57;;;;;;;16.73;2.67;;;7.40;99.90;;;;;;5055601;28;20082;-71
2022/02/15 10:32:24;;;;;;;15.80;2.50;;;7.40;99.90;;;;;;5055439;28;20028;-71
2022/02/15 10:34:56;;;;;;;14.70;2.58;;;7.40;99.90;;;;;;5055710;28;20378;-71
2022/02/15 10:37:26;;;;;;;22.73;2.85;;;7.50;99.90;;;;;;5055759;28;20021;-71
2022/02/15 10:39:56;;;;;;;28.50;4.45;;;7.60;99.90;;;;;;5055426;28;20100;-71
2022/02/15 10:42:24;;;;;;;24.13;3.70;;;7.70;99.90;;;;;;5055124;28;20477;-71
2022/02/15 10:45:08;;;;;;;22.48;3.13;;;7.80;99.90;;;;;;5055507;28;20057;-71
2022/02/15 10:47:36;;;;;;;18.77;2.30;;;7.70;99.90;;;;;;5055698;28;20374;-71
2022/02/15 10:50:05;;;;;;;13.52;2.13;;;7.60;99.90;;;;;;5055188;28;20031;-71
2022/02/15 10:52:30;;;;;;;22.77;3.28;;;7.50;99.90;;;;;;5055017;28;20033;-71
2022/02/15 10:54:56;;;;;;;26.02;3.15;;;7.40;99.90;;;;;;5054869;28;20029;-71
2022/02/15 10:57:23;;;;;;;18.40;2.22;;;7.50;99.90;;;;;;5055010;28;20029;-71
2022/02/15 10:59:52;;;;;;;29.45;2.72;;;7.60;99.90;;;;;;5055352;28;20382;-71
2022/02/15 11:02:25;;;;;;;25.67;3.45;;;7.70;99.90;;;;;;5054927;28;20029;-71
2022/02/15 11:04:51;;;;;;;24.00;2.90;;;7.60;99.90;;;;;;5055308;28;20478;-71
2022/02/15 11:07:19;;;;;;;31.05;4.00;;;7.60;99.90;;;;;;5055158;28;20116;-71
2022/02/15 11:10:04;;;;;;;27.20;3.35;;;7.60;99.90;;;;;;5054776;28;20033;-71
2022/02/15 11:12:53;;;;;;;25.60;3.47;;;7.50;99.90;;;;;;5054729;28;20040;-71
2022/02/15 11:15:24;;;;;;;9.93;1.90;;;7.30;99.90;;;;;;5054725;28;20021;-71
2022/02/15 11:17:54;;;;;;;22.13;3.15;;;7.40;99.90;;;;;;5054751;28;20021;-71
2022/02/15 11:20:27;;;;;;;18.98;2.67;;;7.30;99.90;;;;;;5054851;28;20028;-71
2022/02/15 11:22:54;;;;;;;14.68;2.25;;;7.30;99.90;;;;;;5054587;28;20506;-71
2022/02/15 11:25:32;;;;;;;23.35;3.17;;;7.20;99.90;;;;;;5054946;28;20116;-72
2022/02/15 11:28:05;;;;;;;12.30;3.13;;;7.20;99.90;;;;;;5054262;28;20025;-72
2022/02/15 11:30:42;;;;;;;43.60;3.85;;;7.20;99.90;;;;;;5054919;28;20386;-71
2022/02/15 11:33:08;;;;;;;18.88;2.38;;;7.10;99.90;;;;;;5054360;28;20033;-71
2022/02/15 11:35:34;;;;;;;13.82;2.35;;;7.00;99.90;;;;;;5054378;28;20052;-71
2022/02/15 11:38:14;;;;;;;16.15;2.13;;;7.00;99.90;;;;;;5054243;28;20029;-71
2022/02/15 11:40:40;;;;;;;27.15;2.42;;;7.00;99.90;;;;;;5053946;28;20412;-70
2022/02/15 11:43:05;;;;;;;18.23;2.90;;;7.00;99.90;;;;;;5054139;28;20025;-71
2022/02/15 11:45:32;;;;;;;20.83;3.58;;;7.00;99.90;;;;;;5054324;28;20469;-71
2022/02/15 11:48:07;;;;;;;24.70;4.72;;;7.00;99.90;;;;;;5054076;28;20017;-71
2022/02/15 11:50:48;;;;;;;21.08;3.53;;;7.00;99.90;;;;;;5054063;28;20021;-71
2022/02/15 11:53:16;;;;;;;22.00;3.42;;;6.90;99.90;;;;;;5054760;28;20052;-71
2022/02/15 11:55:43;;;;;;;19.55;3.03;;;6.80;99.90;;;;;;5054033;28;20075;-71
2022/02/15 11:58:09;;;;;;;26.63;3.10;;;6.80;99.90;;;;;;5053917;28;20033;-71
2022/02/15 12:00:36;;;;;;;18.33;1.90;;;6.80;99.90;;;;;;5054053;28;20076;-71
2022/02/15 12:03:03;;;;;;;21.02;2.00;;;6.80;99.90;;;;;;5054049;28;20350;-71
2022/02/15 12:05:30;;;;;;;17.15;2.22;;;6.90;99.90;;;;;;5053775;28;20100;-71
2022/02/15 12:07:57;;;;;;;10.57;1.70;;;7.00;99.90;;;;;;5053763;28;20481;-71
2022/02/15 12:10:24;;;;;;;17.90;2.22;;;7.10;99.90;;;;;;5053733;28;20021;-71
2022/02/15 12:12:52;;;;;;;12.90;1.90;;;7.10;99.90;;;;;;5053671;28;20018;-71
2022/02/15 12:15:18;;;;;;;21.40;2.85;;;7.00;99.90;;;;;;5053633;28;20017;-71
2022/02/15 12:17:45;;;;;;;7.32;1.70;;;7.00;99.90;;;;;;5053818;28;20025;-71
2022/02/15 12:20:16;;;;;;;11.20;2.33;;;7.00;99.90;;;;;;5053359;28;20469;-71
2022/02/15 12:22:44;;;;;;;11.85;2.13;;;7.10;99.90;;;;;;5053808;28;20032;-71
2022/02/15 12:25:11;;;;;;;9.50;2.13;;;7.20;99.90;;;;;;5053515;28;20032;-71
2022/02/15 12:27:44;;;;;;;17.73;2.55;;;7.30;99.90;;;;;;5053435;28;20072;-71
2022/02/15 12:30:13;;;;;;;15.07;2.13;;;7.40;99.90;;;;;;5053606;28;20027;-71
2022/02/15 12:32:40;;;;;;;17.48;2.65;;;7.50;99.90;;;;;;5053295;28;20035;-71
2022/02/15 12:35:07;;;;;;;15.73;2.08;;;7.60;99.90;;;;;;5053919;28;20090;-71
2022/02/15 12:37:33;;;;;;;13.25;2.20;;;7.60;99.90;;;;;;5053467;28;20389;-71
2022/02/15 12:40:00;;;;;;;11.55;2.17;;;7.60;99.90;;;;;;5053340;28;20039;-71
2022/02/15 12:42:29;;;;;;;20.73;2.38;;;7.60;99.90;;;;;;5053458;28;20037;-71
2022/02/15 12:44:57;;;;;;;15.70;1.70;;;7.90;99.90;;;;;;5053306;28;20013;-71
2022/02/15 12:47:27;;;;;;;12.07;2.20;;;8.30;99.90;;;;;;5053599;28;20036;-71
2022/02/15 12:49:53;;;;;;;10.07;2.72;;;8.50;99.90;;;;;;5053283;28;20024;-71
2022/02/15 12:52:23;;;;;;;19.73;2.42;;;8.30;99.90;;;;;;5053050;28;20044;-71